| time (UTC) | temp C | wind direction | speed KPH | gust KPH | rain 1hr cm | rain 24hr cm | rain mn cm | humidity % | barometer mb |
| 20260509135232 | 24 | 277 | 8.0 | 11.3 | 0.00 | 0.00 | 0.00 | 77 | 1010.8 |
| 20260509134728 | 24 | 292 | 8.0 | 9.7 | 0.00 | 0.00 | 0.00 | 76 | 1010.5 |
| 20260509134226 | 24 | 298 | 6.4 | 8.0 | 0.00 | 0.00 | 0.00 | 80 | 1010.4 |
| 20260509133723 | 23 | 281 | 3.2 | 3.2 | 0.00 | 0.00 | 0.00 | 81 | 1010.3 |
| 20260509133220 | 23 | 271 | 4.8 | 4.8 | 0.00 | 0.00 | 0.00 | 81 | 1010.2 |
| 20260509132719 | 23 | 279 | 1.6 | 1.6 | 0.00 | 0.00 | 0.00 | 81 | 1010.1 |
| 20260509132216 | 23 | 275 | 0.0 | 1.6 | 0.00 | 0.00 | 0.00 | 81 | 1010.1 |
| 20260509131713 | 24 | 274 | 1.6 | 1.6 | 0.00 | 0.00 | 0.00 | 80 | 1010.2 |
| 20260509131209 | 25 | 9 | 1.6 | 1.6 | 0.00 | 0.00 | 0.00 | 79 | 1010.1 |
| 20260509130705 | 23 | 2 | 1.6 | 1.6 | 0.00 | 0.00 | 0.00 | 83 | 1010.0 |
| 20260509130201 | 22 | 311 | 1.6 | 1.6 | 0.00 | 0.00 | 0.00 | 86 | 1009.9 |
| 20260509125658 | 22 | 295 | 0.0 | 0.0 | 0.00 | 0.00 | 0.00 | 86 | 1009.9 |
| 20260509125155 | 22 | 279 | 0.0 | 0.0 | 0.00 | 0.00 | 0.00 | 87 | 1009.8 |
| 20260509124651 | 22 | 292 | 0.0 | 0.0 | 0.00 | 0.00 | 0.00 | 88 | 1010.0 |
| 20260509124148 | 21 | 263 | 0.0 | 0.0 | 0.00 | 0.00 | 0.00 | 88 | 1009.9 |
| 20260509123646 | 21 | 281 | 0.0 | 0.0 | 0.00 | 0.00 | 0.00 | 89 | 1009.8 |
| 20260509123143 | 21 | 284 | 0.0 | 0.0 | 0.00 | 0.00 | 0.00 | 89 | 1010.2 |
| 20260509122638 | 21 | 311 | 0.0 | 0.0 | 0.00 | 0.00 | 0.00 | 90 | 1010.1 |
| 20260509122136 | 21 | 265 | 0.0 | 0.0 | 0.00 | 0.00 | 0.00 | 90 | 1010.1 |
| 20260509121632 | 21 | 294 | 0.0 | 0.0 | 0.00 | 0.00 | 0.00 | 90 | 1010.3 |
| 20260509121130 | 21 | 283 | 1.6 | 1.6 | 0.00 | 0.00 | 0.00 | 90 | 1010.5 |
| 20260509120628 | 21 | 275 | 0.0 | 0.0 | 0.00 | 0.00 | 0.00 | 89 | 1010.4 |
| 20260509120126 | 21 | 254 | 0.0 | 0.0 | 0.00 | 0.00 | 0.00 | 89 | 1010.6 |
| 20260509115623 | 21 | 248 | 1.6 | 1.6 | 0.00 | 0.00 | 0.00 | 89 | 1010.6 |
| 20260509115121 | 21 | 314 | 1.6 | 1.6 | 0.00 | 0.00 | 0.00 | 88 | 1010.5 |
| 20260509114619 | 21 | 274 | 0.0 | 0.0 | 0.00 | 0.00 | 0.00 | 88 | 1010.6 |
| 20260509114118 | 21 | 273 | 1.6 | 3.2 | 0.00 | 0.00 | 0.00 | 88 | 1010.5 |
| 20260509113615 | 21 | 259 | 4.8 | 4.8 | 0.00 | 0.00 | 0.00 | 88 | 1010.4 |
| 20260509113113 | 21 | 286 | 3.2 | 4.8 | 0.00 | 0.00 | 0.00 | 89 | 1010.4 |
| 20260509112609 | 21 | 277 | 6.4 | 8.0 | 0.00 | 0.00 | 0.00 | 89 | 1010.1 |
| 20260509112106 | 21 | 269 | 6.4 | 8.0 | 0.00 | 0.00 | 0.00 | 90 | 1010.3 |
| 20260509111603 | 21 | 281 | 9.7 | 11.3 | 0.00 | 0.00 | 0.00 | 91 | 1010.3 |
| 20260509111100 | 21 | 264 | 4.8 | 8.0 | 0.00 | 0.00 | 0.00 | 91 | 1010.0 |
| 20260509110557 | 21 | 317 | 11.3 | 14.5 | 0.00 | 0.00 | 0.00 | 91 | 1009.7 |
| 20260509110054 | 21 | 300 | 8.0 | 9.7 | 0.00 | 0.00 | 0.00 | 92 | 1009.7 |
| 20260509105552 | 21 | 272 | 9.7 | 11.3 | 0.00 | 0.00 | 0.00 | 92 | 1009.8 |
| 20260509105049 | 21 | 249 | 8.0 | 9.7 | 0.00 | 0.00 | 0.00 | 92 | 1009.3 |
| 20260509104546 | 21 | 252 | 6.4 | 11.3 | 0.00 | 0.00 | 0.00 | 92 | 1008.6 |
| 20260509104043 | 21 | 269 | 6.4 | 8.0 | 0.00 | 0.00 | 0.00 | 92 | 1008.5 |
| 20260509103541 | 21 | 216 | 4.8 | 4.8 | 0.00 | 0.00 | 0.00 | 92 | 1008.3 |
| 20260509103039 | 20 | 206 | 6.4 | 9.7 | 0.00 | 0.00 | 0.00 | 92 | 1008.0 |
| 20260509102536 | 20 | 170 | 6.4 | 9.7 | 0.00 | 0.00 | 0.00 | 92 | 1007.9 |
| 20260509102033 | 20 | 161 | 8.0 | 11.3 | 0.00 | 0.00 | 0.00 | 92 | 1007.9 |
| 20260509101529 | 20 | 172 | 8.0 | 9.7 | 0.00 | 0.00 | 0.00 | 92 | 1007.8 |
| 20260509101026 | 20 | 259 | 4.8 | 8.0 | 0.00 | 0.00 | 0.00 | 92 | 1007.6 |
| 20260509100523 | 20 | 202 | 6.4 | 8.0 | 0.00 | 0.00 | 0.00 | 92 | 1007.6 |
| 20260509100020 | 20 | 254 | 6.4 | 8.0 | 0.00 | 0.00 | 0.00 | 92 | 1007.4 |
| 20260509095517 | 20 | 171 | 8.0 | 12.9 | 0.00 | 0.00 | 0.00 | 92 | 1007.4 |
| 20260509095015 | 20 | 191 | 9.7 | 11.3 | 0.00 | 0.00 | 0.00 | 92 | 1007.4 |
| 20260509094510 | 20 | 196 | 9.7 | 12.9 | 0.00 | 0.00 | 0.00 | 92 | 1007.4 |
| 20260509094008 | 20 | 234 | 9.7 | 14.5 | 0.00 | 0.00 | 0.00 | 92 | 1007.5 |
| 20260509093506 | 20 | 204 | 9.7 | 12.9 | 0.00 | 0.00 | 0.00 | 92 | 1007.5 |
| 20260509093003 | 20 | 229 | 4.8 | 8.0 | 0.00 | 0.00 | 0.00 | 91 | 1007.4 |
| 20260509092501 | 20 | 197 | 6.4 | 9.7 | 0.00 | 0.00 | 0.00 | 91 | 1007.8 |
| 20260509091959 | 20 | 164 | 8.0 | 11.3 | 0.00 | 0.00 | 0.00 | 91 | 1007.7 |
| 20260509091456 | 20 | 332 | 9.7 | 12.9 | 0.00 | 0.00 | 0.00 | 91 | 1008.1 |
| 20260509090953 | 20 | 202 | 8.0 | 11.3 | 0.00 | 0.00 | 0.00 | 91 | 1008.6 |
| 20260509090450 | 20 | 210 | 3.2 | 3.2 | 0.00 | 0.00 | 0.00 | 91 | 1008.4 |
| 20260509085948 | 20 | 202 | 6.4 | 8.0 | 0.00 | 0.00 | 0.00 | 91 | 1008.9 |
| 20260509085445 | 20 | 140 | 3.2 | 3.2 | 0.00 | 0.00 | 0.00 | 91 | 1008.7 |
| 20260509084941 | 20 | 201 | 4.8 | 4.8 | 0.00 | 0.00 | 0.00 | 90 | 1008.9 |
| 20260509084438 | 20 | 187 | 4.8 | 4.8 | 0.00 | 0.00 | 0.00 | 90 | 1009.2 |
| 20260509083935 | 20 | 227 | 4.8 | 8.0 | 0.00 | 0.00 | 0.00 | 90 | 1009.4 |
| 20260509083433 | 20 | 241 | 4.8 | 8.0 | 0.00 | 0.00 | 0.00 | 90 | 1009.5 |
| 20260509082929 | 20 | 217 | 3.2 | 4.8 | 0.00 | 0.00 | 0.00 | 89 | 1009.5 |
| 20260509082427 | 20 | 206 | 1.6 | 3.2 | 0.00 | 0.00 | 0.00 | 89 | 1009.7 |
| 20260509081923 | 21 | 155 | 4.8 | 4.8 | 0.00 | 0.00 | 0.00 | 89 | 1009.7 |
| 20260509081421 | 21 | 258 | 4.8 | 4.8 | 0.00 | 0.00 | 0.00 | 89 | 1010.4 |
| 20260509080918 | 21 | 241 | 3.2 | 3.2 | 0.00 | 0.00 | 0.00 | 89 | 1010.7 |
| 20260509080416 | 21 | 249 | 4.8 | 8.0 | 0.00 | 0.00 | 0.00 | 89 | 1011.2 |
| 20260509075914 | 21 | 243 | 4.8 | 4.8 | 0.00 | 0.00 | 0.00 | 89 | 1011.3 |
| 20260509075410 | 21 | 238 | 4.8 | 8.0 | 0.00 | 0.00 | 0.00 | 89 | 1011.5 |
| 20260509074908 | 21 | 263 | 3.2 | 4.8 | 0.00 | 0.00 | 0.00 | 89 | 1011.6 |
| 20260509074406 | 21 | 240 | 4.8 | 4.8 | 0.00 | 0.00 | 0.00 | 89 | 1011.5 |
| 20260509073901 | 21 | 256 | 3.2 | 3.2 | 0.00 | 0.00 | 0.00 | 89 | 1011.6 |
| 20260509073358 | 21 | 259 | 3.2 | 3.2 | 0.00 | 0.00 | 0.00 | 89 | 1011.4 |
| 20260509072855 | 21 | 263 | 4.8 | 4.8 | 0.00 | 0.00 | 0.00 | 89 | 1011.2 |
| 20260509072351 | 21 | 261 | 3.2 | 3.2 | 0.00 | 0.00 | 0.00 | 89 | 1010.9 |
| 20260509071848 | 21 | 278 | 3.2 | 3.2 | 0.00 | 0.00 | 0.00 | 89 | 1010.9 |
| 20260509071345 | 21 | 263 | 1.6 | 1.6 | 0.00 | 0.00 | 0.00 | 89 | 1010.9 |
| 20260509070842 | 21 | 268 | 1.6 | 1.6 | 0.00 | 0.00 | 0.00 | 89 | 1010.9 |
| 20260509070339 | 21 | 251 | 1.6 | 1.6 | 0.00 | 0.00 | 0.00 | 89 | 1011.1 |
| 20260509065835 | 21 | 290 | 1.6 | 1.6 | 0.00 | 0.00 | 0.00 | 89 | 1011.4 |
| 20260509065331 | 20 | 293 | 1.6 | 3.2 | 0.00 | 0.00 | 0.00 | 89 | 1011.4 |
| 20260509064827 | 20 | 327 | 1.6 | 1.6 | 0.00 | 0.00 | 0.00 | 89 | 1011.3 |
| 20260509064325 | 20 | 316 | 1.6 | 1.6 | 0.00 | 0.00 | 0.00 | 89 | 1011.3 |
| 20260509063822 | 20 | 322 | 1.6 | 3.2 | 0.00 | 0.00 | 0.00 | 89 | 1011.3 |
| 20260509063318 | 20 | 344 | 3.2 | 3.2 | 0.00 | 0.00 | 0.00 | 89 | 1011.2 |
| 20260509062816 | 20 | 316 | 1.6 | 3.2 | 0.00 | 0.00 | 0.00 | 89 | 1011.2 |
| 20260509062313 | 20 | 351 | 1.6 | 1.6 | 0.00 | 0.00 | 0.00 | 89 | 1011.0 |
| 20260509061810 | 20 | 334 | 1.6 | 3.2 | 0.00 | 0.00 | 0.00 | 89 | 1011.1 |
| 20260509061308 | 20 | 321 | 0.0 | 1.6 | 0.00 | 0.00 | 0.00 | 89 | 1010.8 |
| 20260509060805 | 20 | 272 | 0.0 | 0.0 | 0.00 | 0.00 | 0.00 | 89 | 1010.6 |
| 20260509060301 | 20 | 256 | 0.0 | 0.0 | 0.00 | 0.00 | 0.00 | 89 | 1010.4 |
| 20260509055757 | 20 | 257 | 0.0 | 0.0 | 0.00 | 0.00 | 0.00 | 89 | 1010.5 |
| 20260509055253 | 20 | 256 | 0.0 | 1.6 | 0.00 | 0.00 | 0.00 | 89 | 1010.4 |
| 20260509054749 | 21 | 255 | 0.0 | 0.0 | 0.00 | 0.00 | 0.00 | 89 | 1010.5 |
| 20260509054246 | 21 | 245 | 0.0 | 0.0 | 0.00 | 0.00 | 0.00 | 88 | 1010.8 |
| 20260509053745 | 21 | 147 | 3.2 | 3.2 | 0.00 | 0.00 | 0.00 | 88 | 1010.5 |
| 20260509053241 | 21 | 125 | 1.6 | 3.2 | 0.00 | 0.00 | 0.00 | 88 | 1010.4 |
| 20260509052740 | 21 | 196 | 4.8 | 8.0 | 0.00 | 0.00 | 0.00 | 88 | 1010.4 |
| 20260509052237 | 21 | 116 | 4.8 | 8.0 | 0.00 | 0.00 | 0.00 | 87 | 1010.5 |
| 20260509051734 | 21 | 236 | 0.0 | 0.0 | 0.00 | 0.00 | 0.00 | 87 | 1010.5 |
| 20260509051233 | 21 | 198 | 0.0 | 1.6 | 0.00 | 0.00 | 0.00 | 86 | 1010.7 |
| 20260509050729 | 21 | 104 | 1.6 | 1.6 | 0.00 | 0.00 | 0.00 | 86 | 1010.4 |
| 20260509050226 | 21 | 103 | 1.6 | 3.2 | 0.00 | 0.00 | 0.00 | 86 | 1011.0 |
| 20260509045723 | 21 | 350 | 0.0 | 1.6 | 0.00 | 0.10 | 0.10 | 85 | 1011.2 |
| 20260509045219 | 21 | 354 | 0.0 | 1.6 | 0.00 | 0.10 | 0.10 | 85 | 1011.0 |
| 20260509044717 | 22 | 23 | 0.0 | 0.0 | 0.00 | 0.10 | 0.10 | 85 | 1010.7 |
| 20260509044215 | 22 | 87 | 1.6 | 1.6 | 0.00 | 0.10 | 0.10 | 85 | 1010.8 |
| 20260509043711 | 22 | 67 | 1.6 | 1.6 | 0.00 | 0.10 | 0.10 | 85 | 1010.7 |
| 20260509043207 | 22 | 20 | 0.0 | 0.0 | 0.00 | 0.10 | 0.10 | 84 | 1010.8 |
| 20260509042703 | 22 | 53 | 0.0 | 1.6 | 0.00 | 0.10 | 0.10 | 84 | 1010.9 |
| 20260509042159 | 22 | 53 | 0.0 | 0.0 | 0.00 | 0.10 | 0.10 | 84 | 1010.6 |
| 20260509041656 | 22 | 59 | 1.6 | 1.6 | 0.00 | 0.10 | 0.10 | 84 | 1010.8 |
| 20260509041153 | 22 | 81 | 0.0 | 0.0 | 0.00 | 0.10 | 0.10 | 84 | 1010.6 |
| 20260509040652 | 22 | 84 | 0.0 | 1.6 | 0.00 | 0.10 | 0.10 | 84 | 1010.5 |
| 20260509040148 | 22 | 85 | 1.6 | 1.6 | 0.00 | 0.10 | 0.10 | 84 | 1010.5 |
| 20260509035645 | 22 | 84 | 1.6 | 1.6 | 0.00 | 0.10 | 0.10 | 84 | 1010.6 |
| 20260509035142 | 22 | 84 | 1.6 | 1.6 | 0.00 | 0.10 | 0.10 | 84 | 1010.6 |
| 20260509034639 | 22 | 83 | 0.0 | 0.0 | 0.00 | 0.10 | 0.10 | 84 | 1010.7 |
| 20260509034136 | 22 | 84 | 0.0 | 0.0 | 0.00 | 0.10 | 0.10 | 84 | 1010.5 |
| 20260509033633 | 22 | 84 | 0.0 | 0.0 | 0.00 | 0.10 | 0.10 | 84 | 1010.4 |
| 20260509033130 | 22 | 91 | 0.0 | 0.0 | 0.00 | 0.10 | 0.10 | 84 | 1010.3 |
| 20260509032628 | 22 | 84 | 1.6 | 1.6 | 0.00 | 0.10 | 0.10 | 84 | 1010.2 |
| 20260509032124 | 22 | 91 | 1.6 | 1.6 | 0.00 | 0.10 | 0.10 | 84 | 1010.1 |
| 20260509031622 | 22 | 106 | 1.6 | 3.2 | 0.00 | 0.10 | 0.10 | 83 | 1010.1 |
| 20260509031119 | 22 | 121 | 3.2 | 3.2 | 0.00 | 0.10 | 0.10 | 83 | 1009.8 |
| 20260509030617 | 22 | 178 | 3.2 | 3.2 | 0.00 | 0.10 | 0.10 | 83 | 1009.6 |
| 20260509030114 | 22 | 133 | 4.8 | 4.8 | 0.00 | 0.10 | 0.10 | 83 | 1009.7 |
| 20260509025610 | 22 | 83 | 1.6 | 1.6 | 0.00 | 0.10 | 0.10 | 83 | 1010.0 |
| 20260509025106 | 22 | 101 | 1.6 | 3.2 | 0.00 | 0.10 | 0.10 | 82 | 1010.1 |
| 20260509024602 | 22 | 82 | 1.6 | 1.6 | 0.00 | 0.10 | 0.10 | 82 | 1009.9 |
| 20260509024058 | 22 | 59 | 0.0 | 0.0 | 0.00 | 0.10 | 0.10 | 82 | 1009.9 |
| 20260509023556 | 22 | 101 | 3.2 | 3.2 | 0.00 | 0.10 | 0.10 | 82 | 1009.8 |
| 20260509023053 | 22 | 95 | 3.2 | 3.2 | 0.00 | 0.10 | 0.10 | 82 | 1009.6 |
| 20260509022549 | 22 | 98 | 1.6 | 1.6 | 0.00 | 0.10 | 0.10 | 82 | 1009.6 |
| 20260509022047 | 22 | 107 | 1.6 | 1.6 | 0.00 | 0.10 | 0.10 | 82 | 1009.4 |
| 20260509021544 | 22 | 99 | 1.6 | 3.2 | 0.00 | 0.10 | 0.10 | 82 | 1009.5 |
| 20260509021041 | 22 | 98 | 3.2 | 3.2 | 0.00 | 0.10 | 0.10 | 82 | 1009.5 |
| 20260509020539 | 22 | 107 | 3.2 | 3.2 | 0.00 | 0.10 | 0.10 | 81 | 1009.5 |
| 20260509020035 | 22 | 105 | 0.0 | 0.0 | 0.00 | 0.10 | 0.10 | 81 | 1009.4 |
| 20260509015535 | 22 | 111 | 0.0 | 0.0 | 0.00 | 0.10 | 0.10 | 81 | 1009.4 |
| 20260509015032 | 23 | 118 | 0.0 | 0.0 | 0.00 | 0.10 | 0.10 | 81 | 1009.3 |
| 20260509014528 | 23 | 243 | 0.0 | 0.0 | 0.00 | 0.10 | 0.10 | 80 | 1009.2 |
| 20260509014024 | 23 | 249 | 0.0 | 1.6 | 0.00 | 0.10 | 0.10 | 80 | 1009.4 |
| 20260509013522 | 23 | 249 | 0.0 | 1.6 | 0.00 | 0.10 | 0.10 | 80 | 1009.2 |
| 20260509013017 | 23 | 244 | 0.0 | 0.0 | 0.00 | 0.10 | 0.10 | 80 | 1009.2 |
| 20260509012514 | 23 | 240 | 0.0 | 0.0 | 0.00 | 0.10 | 0.10 | 80 | 1009.2 |
| 20260509012011 | 23 | 234 | 1.6 | 1.6 | 0.00 | 0.10 | 0.10 | 80 | 1009.0 |
| 20260509011509 | 23 | 199 | 1.6 | 1.6 | 0.00 | 0.10 | 0.10 | 80 | 1008.9 |
| 20260509011006 | 23 | 185 | 1.6 | 1.6 | 0.00 | 0.10 | 0.10 | 80 | 1008.8 |
| 20260509010503 | 23 | 195 | 3.2 | 3.2 | 0.00 | 0.10 | 0.10 | 80 | 1008.8 |
| 20260509010000 | 23 | 219 | 1.6 | 1.6 | 0.00 | 0.10 | 0.10 | 79 | 1008.8 |
| 20260509005458 | 23 | 208 | 3.2 | 3.2 | 0.00 | 0.10 | 0.10 | 79 | 1008.5 |
| 20260509004957 | 23 | 211 | 3.2 | 3.2 | 0.00 | 0.10 | 0.10 | 79 | 1008.5 |
| 20260509004455 | 23 | 204 | 1.6 | 3.2 | 0.00 | 0.10 | 0.10 | 78 | 1008.7 |
| 20260509003952 | 23 | 113 | 1.6 | 3.2 | 0.00 | 0.10 | 0.10 | 78 | 1008.4 |
| 20260509003451 | 23 | 208 | 3.2 | 4.8 | 0.00 | 0.10 | 0.10 | 77 | 1008.5 |
| 20260509002947 | 24 | 165 | 4.8 | 8.0 | 0.00 | 0.10 | 0.10 | 76 | 1008.6 |
| 20260509002445 | 24 | 118 | 4.8 | 4.8 | 0.00 | 0.10 | 0.10 | 75 | 1008.3 |
| 20260509001942 | 25 | 202 | 3.2 | 3.2 | 0.00 | 0.10 | 0.10 | 75 | 1008.5 |
| 20260509001438 | 25 | 205 | 0.0 | 1.6 | 0.00 | 0.10 | 0.10 | 75 | 1008.6 |
| 20260509000935 | 24 | 140 | 3.2 | 3.2 | 0.00 | 0.10 | 0.10 | 75 | 1008.6 |
| 20260509000433 | 25 | 116 | 3.2 | 4.8 | 0.00 | 0.10 | 0.10 | 75 | 1008.3 |
| 20260508235928 | 25 | 201 | 4.8 | 4.8 | 0.00 | 0.10 | 0.10 | 74 | 1008.3 |
| 20260508235427 | 25 | 194 | 6.4 | 8.0 | 0.00 | 0.10 | 0.10 | 75 | 1008.5 |
| 20260508234923 | 25 | 183 | 6.4 | 9.7 | 0.00 | 0.10 | 0.10 | 74 | 1008.5 |
| 20260508234420 | 25 | 159 | 4.8 | 4.8 | 0.00 | 0.10 | 0.10 | 74 | 1008.4 |
| 20260508233918 | 25 | 182 | 6.4 | 8.0 | 0.00 | 0.10 | 0.10 | 74 | 1008.4 |
| 20260508233417 | 25 | 168 | 3.2 | 4.8 | 0.00 | 0.10 | 0.10 | 74 | 1008.5 |
| 20260508232913 | 25 | 172 | 4.8 | 8.0 | 0.00 | 0.10 | 0.10 | 74 | 1008.6 |
| 20260508232410 | 25 | 215 | 6.4 | 11.3 | 0.00 | 0.10 | 0.10 | 74 | 1008.6 |
| 20260508231908 | 25 | 164 | 1.6 | 1.6 | 0.00 | 0.10 | 0.10 | 74 | 1008.5 |
| 20260508231405 | 25 | 187 | 8.0 | 11.3 | 0.00 | 0.10 | 0.10 | 73 | 1008.7 |
| 20260508230901 | 24 | 114 | 3.2 | 3.2 | 0.00 | 0.10 | 0.10 | 74 | 1008.7 |
| 20260508230358 | 24 | 191 | 8.0 | 9.7 | 0.00 | 0.10 | 0.10 | 74 | 1008.8 |
| 20260508225850 | 25 | 193 | 9.7 | 14.5 | 0.00 | 0.10 | 0.10 | 74 | 1009.0 |
| 20260508225346 | 24 | 189 | 3.2 | 4.8 | 0.00 | 0.10 | 0.10 | 73 | 1008.9 |
| 20260508224844 | 24 | 163 | 6.4 | 8.0 | 0.00 | 0.10 | 0.10 | 75 | 1008.8 |
| 20260508224341 | 24 | 204 | 8.0 | 11.3 | 0.00 | 0.10 | 0.10 | 74 | 1009.0 |
| 20260508223839 | 25 | 127 | 3.2 | 3.2 | 0.00 | 0.10 | 0.10 | 73 | 1008.7 |
| 20260508223336 | 24 | 117 | 6.4 | 9.7 | 0.00 | 0.10 | 0.10 | 73 | 1008.8 |
| 20260508222834 | 24 | 196 | 4.8 | 8.0 | 0.00 | 0.10 | 0.10 | 73 | 1008.8 |
| 20260508222331 | 24 | 126 | 4.8 | 4.8 | 0.00 | 0.10 | 0.10 | 75 | 1008.9 |
| 20260508221827 | 23 | 114 | 3.2 | 4.8 | 0.00 | 0.10 | 0.10 | 76 | 1009.3 |
| 20260508221323 | 24 | 221 | 6.4 | 8.0 | 0.00 | 0.10 | 0.10 | 74 | 1009.4 |
| 20260508220820 | 23 | 210 | 3.2 | 3.2 | 0.00 | 0.10 | 0.10 | 75 | 1009.4 |
| 20260508220316 | 23 | 213 | 8.0 | 11.3 | 0.00 | 0.10 | 0.10 | 75 | 1009.0 |
| 20260508215813 | 23 | 206 | 6.4 | 9.7 | 0.00 | 0.10 | 0.10 | 77 | 1008.9 |
| 20260508215309 | 23 | 215 | 6.4 | 11.3 | 0.00 | 0.10 | 0.10 | 75 | 1008.8 |
| 20260508214806 | 23 | 179 | 6.4 | 8.0 | 0.00 | 0.10 | 0.10 | 76 | 1008.6 |
| 20260508214303 | 23 | 152 | 8.0 | 11.3 | 0.00 | 0.10 | 0.10 | 75 | 1008.6 |
| 20260508213800 | 22 | 116 | 4.8 | 8.0 | 0.00 | 0.10 | 0.10 | 77 | 1008.9 |
| 20260508213256 | 22 | 91 | 4.8 | 8.0 | 0.00 | 0.10 | 0.10 | 78 | 1008.8 |
| 20260508212753 | 22 | 105 | 14.5 | 16.1 | 0.00 | 0.10 | 0.10 | 78 | 1008.9 |
| 20260508212249 | 21 | 108 | 6.4 | 8.0 | 0.00 | 0.10 | 0.10 | 82 | 1009.0 |
| 20260508211745 | 21 | 115 | 14.5 | 16.1 | 0.00 | 0.10 | 0.10 | 83 | 1009.6 |
| 20260508211241 | 20 | 153 | 6.4 | 8.0 | 0.00 | 0.10 | 0.10 | 85 | 1009.8 |
| 20260508210739 | 20 | 93 | 9.7 | 11.3 | 0.00 | 0.10 | 0.10 | 84 | 1009.9 |
| 20260508210235 | 20 | 95 | 6.4 | 9.7 | 0.00 | 0.10 | 0.10 | 85 | 1010.1 |
| 20260508205731 | 19 | 307 | 1.6 | 1.6 | 0.00 | 0.10 | 0.10 | 85 | 1010.6 |
| 20260508205228 | 20 | 101 | 4.8 | 8.0 | 0.13 | 0.10 | 0.10 | 86 | 1010.5 |
| 20260508204724 | 19 | 171 | 4.8 | 4.8 | 0.30 | 0.10 | 0.10 | 85 | 1011.1 |
| 20260508204221 | 19 | 243 | 6.4 | 8.0 | 0.61 | 0.10 | 0.10 | 84 | 1011.1 |
| 20260508203717 | 20 | 197 | 4.8 | 4.8 | 0.30 | 0.05 | 0.05 | 83 | 1011.0 |
| 20260508203213 | 20 | 197 | 3.2 | 3.2 | 0.00 | 0.00 | 0.00 | 82 | 1011.1 |
| 20260508202709 | 20 | 201 | 4.8 | 8.0 | 0.00 | 0.00 | 0.00 | 81 | 1011.3 |
| 20260508202207 | 20 | 255 | 6.4 | 9.7 | 0.00 | 0.00 | 0.00 | 79 | 1011.4 |
| 20260508201703 | 21 | 235 | 1.6 | 3.2 | 0.00 | 0.00 | 0.00 | 76 | 1011.4 |
| 20260508201200 | 21 | 235 | 4.8 | 8.0 | 0.00 | 0.00 | 0.00 | 76 | 1011.6 |
| 20260508200657 | 21 | 180 | 8.0 | 9.7 | 0.00 | 0.00 | 0.00 | 74 | 1011.5 |
| 20260508200153 | 21 | 102 | 6.4 | 9.7 | 0.00 | 0.00 | 0.00 | 74 | 1011.1 |
| 20260508195650 | 21 | 185 | 8.0 | 9.7 | 0.00 | 0.00 | 0.00 | 74 | 1011.3 |
| 20260508195146 | 21 | 105 | 3.2 | 4.8 | 0.00 | 0.00 | 0.00 | 74 | 1011.3 |
| 20260508194643 | 21 | 198 | 6.4 | 8.0 | 0.00 | 0.00 | 0.00 | 73 | 1011.3 |
| 20260508194140 | 21 | 184 | 4.8 | 4.8 | 0.00 | 0.00 | 0.00 | 73 | 1011.3 |
| 20260508193637 | 21 | 181 | 8.0 | 11.3 | 0.00 | 0.00 | 0.00 | 72 | 1011.3 |
| 20260508193133 | 22 | 185 | 8.0 | 9.7 | 0.00 | 0.00 | 0.00 | 71 | 1011.3 |
| 20260508192630 | 22 | 101 | 3.2 | 4.8 | 0.00 | 0.00 | 0.00 | 70 | 1011.4 |
| 20260508192128 | 22 | 154 | 8.0 | 11.3 | 0.00 | 0.00 | 0.00 | 70 | 1011.4 |
| 20260508191624 | 22 | 156 | 3.2 | 3.2 | 0.00 | 0.00 | 0.00 | 69 | 1011.3 |
| 20260508191121 | 22 | 124 | 4.8 | 4.8 | 0.00 | 0.00 | 0.00 | 68 | 1011.4 |
| 20260508190618 | 22 | 212 | 4.8 | 8.0 | 0.00 | 0.00 | 0.00 | 68 | 1011.4 |
| 20260508190114 | 21 | 110 | 3.2 | 3.2 | 0.00 | 0.00 | 0.00 | 70 | 1011.5 |
| 20260508185611 | 21 | 176 | 8.0 | 11.3 | 0.00 | 0.00 | 0.00 | 70 | 1011.8 |
| 20260508185109 | 21 | 173 | 6.4 | 9.7 | 0.00 | 0.00 | 0.00 | 69 | 1012.0 |
| 20260508184606 | 21 | 182 | 4.8 | 9.7 | 0.00 | 0.00 | 0.00 | 68 | 1012.0 |
| 20260508184103 | 21 | 128 | 4.8 | 4.8 | 0.00 | 0.00 | 0.00 | 68 | 1012.0 |
| 20260508183559 | 21 | 192 | 3.2 | 3.2 | 0.00 | 0.00 | 0.00 | 69 | 1011.9 |
| 20260508183055 | 21 | 193 | 6.4 | 8.0 | 0.00 | 0.00 | 0.00 | 69 | 1012.3 |
| 20260508182552 | 21 | 118 | 3.2 | 4.8 | 0.00 | 0.00 | 0.00 | 69 | 1012.5 |
| 20260508182050 | 21 | 130 | 4.8 | 8.0 | 0.00 | 0.00 | 0.00 | 68 | 1012.3 |
| 20260508181549 | 21 | 90 | 4.8 | 8.0 | 0.00 | 0.00 | 0.00 | 68 | 1012.2 |
| 20260508181048 | 22 | 136 | 8.0 | 9.7 | 0.00 | 0.00 | 0.00 | 69 | 1012.5 |
| 20260508180544 | 22 | 166 | 3.2 | 4.8 | 0.00 | 0.00 | 0.00 | 69 | 1012.6 |
| 20260508180041 | 22 | 168 | 3.2 | 3.2 | 0.00 | 0.00 | 0.00 | 68 | 1012.5 |
| 20260508175537 | 22 | 101 | 6.4 | 8.0 | 0.00 | 0.00 | 0.00 | 67 | 1012.4 |
| 20260508175035 | 22 | 99 | 9.7 | 11.3 | 0.00 | 0.00 | 0.00 | 67 | 1012.3 |
| 20260508174532 | 21 | 102 | 9.7 | 12.9 | 0.00 | 0.00 | 0.00 | 68 | 1012.5 |
| 20260508174029 | 21 | 109 | 6.4 | 8.0 | 0.00 | 0.00 | 0.00 | 69 | 1012.6 |
| 20260508173526 | 22 | 124 | 4.8 | 4.8 | 0.00 | 0.00 | 0.00 | 69 | 1012.9 |
| 20260508173022 | 22 | 95 | 8.0 | 11.3 | 0.00 | 0.00 | 0.00 | 68 | 1012.8 |
| 20260508172519 | 22 | 179 | 3.2 | 3.2 | 0.00 | 0.00 | 0.00 | 67 | 1012.9 |
| 20260508172015 | 21 | 97 | 11.3 | 12.9 | 0.00 | 0.00 | 0.00 | 68 | 1013.0 |
| 20260508171512 | 22 | 125 | 8.0 | 11.3 | 0.00 | 0.00 | 0.00 | 66 | 1013.1 |
| 20260508171008 | 22 | 121 | 4.8 | 8.0 | 0.00 | 0.00 | 0.00 | 67 | 1013.0 |
| 20260508170506 | 22 | 117 | 9.7 | 11.3 | 0.00 | 0.00 | 0.00 | 67 | 1013.0 |
| 20260508170003 | 22 | 114 | 4.8 | 8.0 | 0.00 | 0.00 | 0.00 | 68 | 1013.3 |
| 20260508165500 | 22 | 179 | 3.2 | 3.2 | 0.00 | 0.00 | 0.00 | 67 | 1013.3 |
| 20260508164956 | 21 | 96 | 1.6 | 3.2 | 0.00 | 0.00 | 0.00 | 69 | 1013.5 |
| 20260508164453 | 21 | 158 | 9.7 | 12.9 | 0.00 | 0.00 | 0.00 | 68 | 1013.3 |
| 20260508163950 | 20 | 111 | 8.0 | 11.3 | 0.00 | 0.00 | 0.00 | 71 | 1013.5 |
| 20260508163448 | 20 | 100 | 11.3 | 12.9 | 0.00 | 0.00 | 0.00 | 71 | 1013.6 |
| 20260508162943 | 20 | 116 | 8.0 | 11.3 | 0.00 | 0.00 | 0.00 | 72 | 1013.8 |
| 20260508162441 | 20 | 108 | 8.0 | 9.7 | 0.00 | 0.00 | 0.00 | 73 | 1013.9 |
| 20260508161938 | 20 | 83 | 4.8 | 8.0 | 0.00 | 0.00 | 0.00 | 74 | 1014.1 |
| 20260508161435 | 20 | 122 | 6.4 | 8.0 | 0.00 | 0.00 | 0.00 | 73 | 1014.2 |
| 20260508160932 | 20 | 105 | 3.2 | 3.2 | 0.00 | 0.00 | 0.00 | 73 | 1014.2 |
| 20260508160431 | 20 | 187 | 1.6 | 3.2 | 0.00 | 0.00 | 0.00 | 74 | 1014.4 |
| 20260508155927 | 20 | 166 | 4.8 | 4.8 | 0.00 | 0.00 | 0.00 | 74 | 1014.4 |
| 20260508155424 | 20 | 94 | 3.2 | 4.8 | 0.00 | 0.00 | 0.00 | 73 | 1014.1 |
| 20260508154921 | 20 | 83 | 1.6 | 3.2 | 0.00 | 0.00 | 0.00 | 74 | 1014.2 |
| 20260508154419 | 19 | 54 | 1.6 | 3.2 | 0.00 | 0.00 | 0.00 | 75 | 1014.6 |
| 20260508153915 | 19 | 78 | 3.2 | 3.2 | 0.00 | 0.00 | 0.00 | 75 | 1014.5 |
| 20260508153412 | 19 | 75 | 1.6 | 1.6 | 0.00 | 0.00 | 0.00 | 76 | 1014.5 |
| 20260508152908 | 18 | 87 | 3.2 | 3.2 | 0.00 | 0.00 | 0.00 | 76 | 1014.3 |
| 20260508152405 | 18 | 76 | 6.4 | 8.0 | 0.00 | 0.00 | 0.00 | 76 | 1014.6 |
| 20260508151901 | 19 | 97 | 6.4 | 8.0 | 0.00 | 0.00 | 0.00 | 76 | 1014.6 |
| 20260508151358 | 19 | 73 | 4.8 | 8.0 | 0.00 | 0.00 | 0.00 | 75 | 1014.6 |
| 20260508150854 | 19 | 77 | 1.6 | 4.8 | 0.00 | 0.00 | 0.00 | 75 | 1014.5 |
| 20260508150352 | 18 | 98 | 4.8 | 4.8 | 0.00 | 0.00 | 0.00 | 75 | 1014.8 |
| 20260508145847 | 18 | 79 | 1.6 | 3.2 | 0.00 | 0.00 | 0.00 | 75 | 1014.6 |
| 20260508145344 | 18 | 82 | 4.8 | 4.8 | 0.00 | 0.00 | 0.00 | 76 | 1014.5 |
| 20260508144841 | 19 | 117 | 8.0 | 9.7 | 0.00 | 0.00 | 0.00 | 74 | 1014.6 |
| 20260508144339 | 18 | 75 | 1.6 | 3.2 | 0.00 | 0.00 | 0.00 | 75 | 1014.7 |
| 20260508143836 | 18 | 87 | 1.6 | 3.2 | 0.00 | 0.00 | 0.00 | 74 | 1014.6 |
| 20260508143333 | 18 | 75 | 3.2 | 4.8 | 0.00 | 0.00 | 0.00 | 75 | 1014.6 |
| 20260508142830 | 18 | 112 | 1.6 | 3.2 | 0.00 | 0.00 | 0.00 | 75 | 1014.4 |
| 20260508142326 | 19 | 120 | 6.4 | 8.0 | 0.00 | 0.00 | 0.00 | 74 | 1014.7 |
| 20260508141823 | 19 | 72 | 3.2 | 4.8 | 0.00 | 0.00 | 0.00 | 73 | 1014.7 |
| 20260508141320 | 19 | 62 | 1.6 | 3.2 | 0.00 | 0.00 | 0.00 | 73 | 1014.6 |
| 20260508140817 | 18 | 85 | 0.0 | 0.0 | 0.00 | 0.00 | 0.00 | 75 | 1014.6 |
| 20260508140314 | 18 | 84 | 8.0 | 11.3 | 0.00 | 0.00 | 0.00 | 74 | 1014.6 |
| 20260508135810 | 18 | 108 | 1.6 | 1.6 | 0.00 | 0.00 | 0.00 | 75 | 1014.6 |